Alfalfa, Louisiana
Current Conditions -  °F | °C
As of 4:53 PM on Tuesday 25 Nov 2014 (Local Time) from KAEX Reporting Station
Clear Clear  
Wind Chill: 12°   Ceiling: Unl
Heat Index: 12°   Visibility: 10mi
Dew Point: -1°   Wind: 5mph
Humidity: 40%   Direction: 360°N
Pressure: 30.2"   Gusts: NA
Location:  31.3168°N, 92.7338°W
Report Text: KAEX 252253Z AUTO 36004KT 10SM CLR 12/M01 A3020 RMK AO2 SLP231 T01221011
Loading
Personal Weather Stations






























Interactive Weather Map New forecast layout! Learn more

10-Day Weather Forecast

Advertisements
Track Severe Weather on mobile